Terminal Aerodrome Forecast
Issued by NWS

Home | Current Version | Previous Version | Text Only | Print | Product List | Glossary On
Versions: 1 2 3 4 5 6 7 8 9 10 11 12 13 14 15 16 17 18 19 20 21 22 23
000
FTPQ31 PGUM 031730
TAFGUM
TAF

TAF
PTYA 031730Z 0318/0418 03007KT P6SM VCSH SCT016 BKN120
     FM032200 05014KT P6SM VCSH SCT015 SCT050 BKN100
     FM040400 03015G24KT P6SM VCSH SCT015 BKN050 OVC100
      TEMPO 0404/0408 03018G28KT 3SM SHRA BKN015 OVC050
     FM040800 02018G28KT 6SM -RA SCT015 BKN050 OVC090
      TEMPO 0408/0412 36020G30KT 2SM +SHRA BKN015 OVC040=

USA.gov is the U.S. government's official web portal to all federal, state and local government web resources and services.